Dades meteomassalio
Diari Summary for Marc 15, 2017 Units:  English    Metric   Both
« Previous Day
Next Day »
Diari Semanal Mensual Anual Personalitzat
  Maxima: Minima: Mijana:
Temperatura: TemperatureC °F 4.3 °F 11.5 °F
Rosada: DewpointC °F 3.3 °F 7 °F
Humitat: Humidity % 48 % 76 %
Velocitat del vent: WindSpeedKMH mph 0.0 mph 2.2 mph
Racha vent: WindSpeedGustKMH mph - -
Vent:- - SSE
Pressio: PressurehPa in 1024.6 in -
Pluja: 0.5 in    
Historical Graphs
 
 
Tabular Data for Marc 15, 2017
Time Temperature Dew Point Pressure Wind Wind Speed Wind Gust Humidity Rainfall Rate (Hourly) solar Conditions
TemperatureC °F DewpointC °F PressurehPa in Calm     Humidity % HourlyPrecipMM in SolarRadiationWatts/m^2 W/m2 Conditions
00:00 9.8 °F 7.9 °F 1029.7 in WSW 6.4 mph 6.4 mph 88 % 0.0 in 0.0 W/m2 RA
00:05 9.8 °F 7.9 °F 1029.7 in SW 7.4 mph 7.4 mph 88 % 0.0 in 0.0 W/m2 CLR
00:10 9.8 °F 7.9 °F 1029.7 in SW 7.4 mph 7.4 mph 88 % 0.0 in 0.0 W/m2 CLR
00:15 9.9 °F 8.0 °F 1029.7 in SW 5.6 mph 5.6 mph 88 % 0.0 in 0.0 W/m2 CLR
00:20 9.8 °F 7.9 °F 1029.7 in SW 5.6 mph 5.6 mph 88 % 0.0 in 0.0 W/m2 CLR
00:25 9.9 °F 8.2 °F 1029.3 in WSW 7.4 mph 7.4 mph 89 % 0.0 in 0.0 W/m2 CLR
00:30 9.9 °F 8.0 °F 1029.3 in SW 5.6 mph   88 % 0.0 in 0.0 W/m2 CLR
00:35 9.8 °F 7.9 °F 1029.7 in Calm     88 % 0.0 in 0.0 W/m2 CLR
00:40 9.6 °F 7.5 °F 1029.7 in Calm     87 % 0.0 in 0.0 W/m2 CLR
00:45 9.3 °F 7.4 °F 1029.7 in Calm     88 % 0.0 in 0.0 W/m2 CLR
00:50 9.2 °F 7.5 °F 1029.7 in SSW 5.6 mph   89 % 0.0 in 0.0 W/m2 CLR
00:55 9.2 °F 7.4 °F 1029.7 in Calm     89 % 0.0 in 0.0 W/m2 CLR
01:00 9.1 °F 7.4 °F 1029.7 in Calm     89 % 0.0 in 0.0 W/m2 CLR
01:05 9.1 °F 7.3 °F 1029.7 in Calm     89 % 0.0 in 0.0 W/m2 CLR
01:10 9.0 °F 7.3 °F 1029.7 in Calm     89 % 0.0 in 0.0 W/m2 CLR
01:16 8.9 °F 7.4 °F 1029.7 in Calm     90 % 0.0 in 0.0 W/m2 CLR
01:21 8.8 °F 7.1 °F 1029.7 in Calm     89 % 0.0 in 0.0 W/m2 CLR
01:26 8.8 °F 7.2 °F 1029.7 in Calm     90 % 0.0 in 0.0 W/m2 CLR
01:31 8.7 °F 7.1 °F 1029.7 in Calm     90 % 0.0 in 0.0 W/m2 CLR
01:36 8.6 °F 7.1 °F 1029.7 in Calm     90 % 0.0 in 0.0 W/m2 CLR
01:41 8.5 °F 6.9 °F 1029.7 in Calm     90 % 0.0 in 0.0 W/m2 CLR
01:46 8.4 °F 6.8 °F 1029.7 in Calm     90 % 0.0 in 0.0 W/m2 CLR
01:51 8.2 °F 6.7 °F 1029.7 in Calm     90 % 0.0 in 0.0 W/m2 CLR
01:56 8.1 °F 6.7 °F 1029.7 in Calm     91 % 0.0 in 0.0 W/m2 CLR
02:01 8.1 °F 6.7 °F 1029.7 in Calm     91 % 0.0 in 0.0 W/m2 CLR
02:06 7.9 °F 6.5 °F 1029.7 in Calm     91 % 0.0 in 0.0 W/m2 CLR
02:11 7.8 °F 6.4 °F 1029.7 in Calm     91 % 0.0 in 0.0 W/m2 CLR
02:16 7.7 °F 6.3 °F 1029.7 in Calm     91 % 0.0 in 0.0 W/m2 CLR
02:21 7.6 °F 6.2 °F 1029.7 in Calm     91 % 0.0 in 0.0 W/m2 CLR
02:26 7.5 °F 6.1 °F 1029.7 in Calm     91 % 0.0 in 0.0 W/m2 CLR
02:31 7.5 °F 6.1 °F 1029.7 in Calm     91 % 0.0 in 0.0 W/m2 CLR
02:36 7.4 °F 6.0 °F 1029.7 in Calm     91 % 0.0 in 0.0 W/m2 CLR
02:41 7.3 °F 6.1 °F 1029.7 in Calm     92 % 0.0 in 0.0 W/m2 CLR
02:46 7.3 °F 6.1 °F 1029.7 in Calm     92 % 0.0 in 0.0 W/m2 CLR
02:51 7.1 °F 5.7 °F 1029.3 in Calm     91 % 0.0 in 0.0 W/m2 CLR
02:56 7.0 °F 5.8 °F 1029.3 in Calm     92 % 0.0 in 0.0 W/m2 CLR
03:01 6.8 °F 5.4 °F 1029.7 in Calm     91 % 0.0 in 0.0 W/m2 CLR
03:06 6.8 °F 5.6 °F 1029.7 in Calm     92 % 0.0 in 0.0 W/m2 CLR
03:11 6.7 °F 5.5 °F 1029.7 in Calm     92 % 0.0 in 0.0 W/m2 CLR
03:16 6.6 °F 5.4 °F 1029.7 in Calm     92 % 0.0 in 0.0 W/m2 CLR
03:21 6.6 °F 5.3 °F 1029.7 in Calm     92 % 0.0 in 0.0 W/m2 CLR
03:26 6.4 °F 5.2 °F 1029.7 in Calm     92 % 0.0 in 0.0 W/m2 CLR
03:31 6.3 °F 5.1 °F 1029.7 in Calm     92 % 0.0 in 0.0 W/m2 CLR
03:36 6.2 °F 5.0 °F 1029.7 in Calm     92 % 0.0 in 0.0 W/m2 CLR
03:41 6.3 °F 5.1 °F 1029.7 in Calm     92 % 0.0 in 0.0 W/m2 CLR
03:46 6.3 °F 5.1 °F 1029.3 in Calm     92 % 0.0 in 0.0 W/m2 CLR
03:51 6.2 °F 5.0 °F 1029.3 in Calm     92 % 0.0 in 0.0 W/m2 CLR
04:01 6.1 °F 4.8 °F 1029.3 in Calm     92 % 0.0 in 0.0 W/m2 CLR
04:06 5.9 °F 4.7 °F 1029.3 in Calm     92 % 0.0 in 0.0 W/m2 CLR
04:11 5.8 °F 4.6 °F 1029.7 in Calm     92 % 0.0 in 0.0 W/m2 CLR
04:16 5.7 °F 4.5 °F 1029.7 in Calm     92 % 0.0 in 0.0 W/m2 CLR
04:26 5.7 °F 4.6 °F 1029.7 in Calm     93 % 0.0 in 0.0 W/m2 CLR
04:31 5.6 °F 4.4 °F 1029.7 in Calm     92 % 0.0 in 0.0 W/m2 CLR
04:36 5.5 °F 4.4 °F 1029.3 in Calm     93 % 0.0 in 0.0 W/m2 CLR
04:41 5.5 °F 4.4 °F 1029.3 in Calm     93 % 0.0 in 0.0 W/m2 CLR
04:46 5.5 °F 4.4 °F 1029.3 in Calm     93 % 0.0 in 0.0 W/m2 CLR
04:51 5.4 °F 4.4 °F 1029.3 in Calm     93 % 0.0 in 0.0 W/m2 CLR
04:56 5.4 °F 4.3 °F 1029.3 in Calm     93 % 0.0 in 0.0 W/m2 CLR
05:01 5.4 °F 4.4 °F 1029.3 in Calm     93 % 0.0 in 0.0 W/m2 CLR
05:06 5.4 °F 4.3 °F 1029.3 in Calm     93 % 0.0 in 0.0 W/m2 CLR
05:11 5.4 °F 4.4 °F 1029.3 in Calm     93 % 0.0 in 0.0 W/m2 CLR
05:16 5.4 °F 4.3 °F 1029.3 in Calm     93 % 0.0 in 0.0 W/m2 CLR
05:26 5.3 °F 4.3 °F 1029.3 in Calm     93 % 0.0 in 0.0 W/m2 CLR
05:31 5.2 °F 4.1 °F 1029.3 in Calm     93 % 0.0 in 0.0 W/m2 CLR
05:36 5.2 °F 4.1 °F 1029.3 in Calm     93 % 0.0 in 0.0 W/m2 CLR
05:41 5.1 °F 4.1 °F 1029.3 in Calm     93 % 0.0 in 0.0 W/m2 CLR
05:46 5.1 °F 4.1 °F 1029.3 in Calm     93 % 0.0 in 0.0 W/m2 CLR
05:51 5.1 °F 4.1 °F 1029.3 in Calm     93 % 0.0 in 0.0 W/m2 CLR
05:56 5.1 °F 4.1 °F 1029.3 in Calm     93 % 0.0 in 0.0 W/m2 CLR
06:01 4.9 °F 3.8 °F 1029.3 in Calm     93 % 0.0 in 0.0 W/m2 CLR
06:06 4.8 °F 3.8 °F 1029.3 in Calm     93 % 0.0 in 0.0 W/m2 CLR
06:11 4.8 °F 3.7 °F 1029.3 in Calm     93 % 0.0 in 0.0 W/m2 CLR
06:16 4.7 °F 3.7 °F 1029.0 in Calm     93 % 0.0 in 0.0 W/m2 CLR
06:21 4.8 °F 3.7 °F 1029.3 in Calm     93 % 0.0 in 0.0 W/m2 CLR
06:26 4.8 °F 3.8 °F 1029.3 in Calm     93 % 0.0 in 0.0 W/m2 CLR
06:31 4.8 °F 3.8 °F 1029.3 in Calm     93 % 0.0 in 0.0 W/m2 CLR
06:36 4.9 °F 3.8 °F 1029.3 in Calm     93 % 0.0 in 0.0 W/m2 CLR
06:41 4.8 °F 3.8 °F 1029.3 in Calm     93 % 0.0 in 0.0 W/m2 CLR
06:46 4.8 °F 3.7 °F 1029.3 in Calm     93 % 0.0 in 0.0 W/m2 CLR
06:51 4.7 °F 3.7 °F 1029.3 in Calm     93 % 0.0 in 0.0 W/m2 CLR
06:56 4.7 °F 3.7 °F 1029.7 in Calm     93 % 0.0 in 0.0 W/m2 CLR
07:01 4.6 °F 3.6 °F 1029.7 in Calm     93 % 0.0 in 0.0 W/m2 OVC
07:06 4.5 °F 3.4 °F 1029.7 in Calm     93 % 0.0 in 0.0 W/m2 OVC
07:11 4.4 °F 3.3 °F 1029.7 in Calm     93 % 0.0 in 5.0 W/m2 OVC
07:16 4.4 °F 3.3 °F 1029.7 in Calm     93 % 0.0 in 7.0 W/m2 BKN
07:21 4.4 °F 3.3 °F 1029.7 in Calm     93 % 0.0 in 11.0 W/m2 BKN
07:26 4.4 °F 3.4 °F 1029.7 in Calm     93 % 0.0 in 16.0 W/m2 BKN
07:31 4.4 °F 3.4 °F 1029.7 in Calm     93 % 0.0 in 19.0 W/m2 BKN
07:36 4.4 °F 3.3 °F 1030.0 in Calm     93 % 0.5 in 25.0 W/m2 RA
07:41 4.3 °F 3.3 °F 1030.0 in Calm     93 % 0.5 in 35.0 W/m2 BKN
07:46 4.4 °F 3.3 °F 1030.0 in Calm     93 % 0.5 in 44.0 W/m2 BKN
07:51 4.4 °F 3.3 °F 1030.0 in Calm     93 % 0.5 in 54.0 W/m2 SCT
07:56 4.4 °F 3.4 °F 1030.0 in Calm     93 % 0.5 in 65.0 W/m2 SCT
08:01 4.6 °F 3.5 °F 1030.0 in Calm     93 % 0.5 in 79.0 W/m2 FEW
08:06 4.7 °F 3.7 °F 1030.0 in Calm     93 % 0.5 in 86.0 W/m2 FEW
08:11 4.9 °F 3.8 °F 1030.0 in Calm     93 % 0.5 in 104.0 W/m2 CLR
08:16 5.1 °F 4.0 °F 1030.0 in Calm     93 % 0.5 in 107.0 W/m2 CLR
08:21 5.2 °F 4.2 °F 1030.0 in Calm     93 % 0.5 in 118.0 W/m2 CLR
08:26 5.4 °F 4.6 °F 1030.0 in Calm     94 % 0.5 in 156.0 W/m2 CLR
08:31 5.7 °F 4.8 °F 1030.0 in Calm     94 % 0.5 in 171.0 W/m2 CLR
08:36 6.0 °F 5.1 °F 1030.0 in Calm     94 % 0.0 in 188.0 W/m2 CLR
08:41 6.4 °F 5.5 °F 1030.0 in Calm     94 % 0.0 in 207.0 W/m2 CLR
08:46 6.8 °F 5.9 °F 1030.0 in Calm     94 % 0.0 in 229.0 W/m2 CLR
08:51 7.2 °F 6.1 °F 1030.0 in Calm     93 % 0.0 in 243.0 W/m2 CLR
08:56 7.6 °F 6.5 °F 1030.0 in Calm     93 % 0.0 in 257.0 W/m2 CLR
09:01 7.9 °F 6.9 °F 1030.0 in Calm     93 % 0.0 in 269.0 W/m2 CLR
09:06 8.3 °F 7.1 °F 1030.0 in Calm     92 % 0.0 in 287.0 W/m2 CLR
09:12 8.6 °F 7.2 °F 1030.0 in Calm     91 % 0.0 in 301.0 W/m2 CLR
09:17 8.9 °F 7.5 °F 1030.0 in Calm     91 % 0.0 in 313.0 W/m2 CLR
09:22 9.3 °F 7.8 °F 1030.0 in Calm     90 % 0.0 in 325.0 W/m2 CLR
09:27 9.9 °F 8.3 °F 1030.0 in Calm     90 % 0.0 in 345.0 W/m2 CLR
09:32 10.4 °F 8.5 °F 1029.7 in Calm     88 % 0.0 in 359.0 W/m2 CLR
09:37 10.8 °F 8.6 °F 1029.7 in West 11.3 mph 11.3 mph 86 % 0.0 in 371.0 W/m2 CLR
09:42 11.1 °F 7.9 °F 1029.7 in NW 7.4 mph 7.4 mph 81 % 0.0 in 383.0 W/m2 CLR
09:52 11.4 °F 7.9 °F 1029.7 in WNW 14.8 mph 14.8 mph 79 % 0.0 in 410.0 W/m2 CLR
09:57 11.6 °F 7.8 °F 1029.7 in WNW 9.7 mph 9.7 mph 78 % 0.0 in 424.0 W/m2 CLR
10:02 11.6 °F 7.5 °F 1029.7 in West 12.9 mph 12.9 mph 76 % 0.0 in 436.0 W/m2 CLR
10:07 11.7 °F 7.4 °F 1029.7 in WNW 13.0 mph 13.0 mph 75 % 0.0 in 452.0 W/m2 CLR
10:12 11.8 °F 7.5 °F 1029.7 in West 13.0 mph 13.0 mph 75 % 0.0 in 468.0 W/m2 CLR
10:17 11.9 °F 8.1 °F 1029.3 in NW 13.0 mph 13.0 mph 77 % 0.0 in 482.0 W/m2 CLR
10:22 12.1 °F 7.8 °F 1029.3 in West 11.3 mph 11.3 mph 75 % 0.0 in 492.0 W/m2 CLR
10:27 12.2 °F 7.5 °F 1029.3 in West 9.3 mph 9.3 mph 73 % 0.0 in 504.0 W/m2 CLR
10:32 12.4 °F 7.7 °F 1029.3 in Calm     73 % 0.0 in 519.0 W/m2 CLR
10:37 12.5 °F 7.8 °F 1029.3 in WNW 7.4 mph 7.4 mph 73 % 0.0 in 531.0 W/m2 CLR
10:42 12.8 °F 8.3 °F 1029.3 in NW 1.6 mph   74 % 0.0 in 541.0 W/m2 CLR
10:47 12.9 °F 8.2 °F 1029.3 in WNW 13.0 mph 13.0 mph 73 % 0.0 in 554.0 W/m2 CLR
10:52 13.1 °F 8.2 °F 1029.3 in Calm     72 % 0.0 in 564.0 W/m2 CLR
10:57 13.2 °F 7.9 °F 1029.3 in WSW 5.6 mph 5.6 mph 70 % 0.0 in 575.0 W/m2 CLR
11:02 13.6 °F 9.0 °F 1029.0 in NNW 11.1 mph 11.1 mph 74 % 0.0 in 585.0 W/m2 CLR
11:07 13.6 °F 7.8 °F 1029.0 in WSW 1.9 mph   68 % 0.0 in 594.0 W/m2 CLR
11:12 13.7 °F 8.3 °F 1029.0 in West 7.4 mph 7.4 mph 70 % 0.0 in 605.0 W/m2 CLR
11:17 13.9 °F 8.5 °F 1029.0 in North 7.4 mph 7.4 mph 70 % 0.0 in 619.0 W/m2 CLR
11:22 14.0 °F 8.2 °F 1029.0 in WSW 11.1 mph 11.1 mph 68 % 0.0 in 629.0 W/m2 CLR
11:27 14.1 °F 8.0 °F 1029.0 in Calm     67 % 0.0 in 633.0 W/m2 CLR
11:32 14.3 °F 8.5 °F 1028.7 in Calm     68 % 0.0 in 643.0 W/m2 CLR
11:37 14.5 °F 8.4 °F 1028.7 in NW 9.3 mph 9.3 mph 67 % 0.0 in 654.0 W/m2 CLR
11:42 14.5 °F 8.7 °F 1028.7 in Calm     68 % 0.0 in 659.0 W/m2 CLR
11:47 14.7 °F 8.4 °F 1028.7 in Calm     66 % 0.0 in 668.0 W/m2 CLR
11:52 15.2 °F 9.3 °F 1028.7 in NNW 11.1 mph 11.1 mph 68 % 0.0 in 677.0 W/m2 CLR
11:57 15.2 °F 8.9 °F 1028.3 in WNW 9.3 mph 9.3 mph 66 % 0.0 in 680.0 W/m2 CLR
12:02 15.3 °F 8.8 °F 1028.3 in Calm     65 % 0.0 in 684.0 W/m2 CLR
12:07 15.4 °F 8.4 °F 1028.3 in Calm     63 % 0.0 in 691.0 W/m2 CLR
12:12 15.5 °F 8.9 °F 1028.3 in WNW 6.4 mph 6.4 mph 65 % 0.0 in 698.0 W/m2 CLR
12:17 15.6 °F 8.8 °F 1028.0 in Calm     64 % 0.0 in 703.0 W/m2 CLR
12:22 15.6 °F 8.8 °F 1028.0 in West 9.3 mph 9.3 mph 64 % 0.0 in 703.0 W/m2 CLR
12:27 15.7 °F 9.2 °F 1028.0 in NW 3.7 mph   65 % 0.0 in 708.0 W/m2 CLR
12:32 15.8 °F 8.8 °F 1027.7 in Calm     63 % 0.0 in 714.0 W/m2 CLR
12:37 16.0 °F 8.7 °F 1028.0 in Calm     62 % 0.0 in 721.0 W/m2 CLR
12:47 16.6 °F 9.2 °F 1027.7 in Calm     62 % 0.0 in 724.0 W/m2 CLR
12:52 16.9 °F 9.3 °F 1027.7 in Calm     61 % 0.0 in 726.0 W/m2 CLR
12:57 17.0 °F 8.7 °F 1027.7 in Calm     58 % 0.0 in 731.0 W/m2 CLR
13:02 17.2 °F 8.8 °F 1027.7 in Calm     58 % 0.0 in 733.0 W/m2 CLR
13:07 17.1 °F 9.1 °F 1027.3 in Calm     59 % 0.0 in 701.0 W/m2 CLR
13:12 17.3 °F 9.2 °F 1027.3 in ENE 1.9 mph 1.9 mph 59 % 0.0 in 659.0 W/m2 CLR
13:17 17.3 °F 9.2 °F 1027.3 in East 1.9 mph   59 % 0.0 in 726.0 W/m2 CLR
13:22 17.3 °F 9.2 °F 1027.3 in ENE 1.9 mph 1.9 mph 59 % 0.0 in 729.0 W/m2 CLR
13:27 17.5 °F 9.7 °F 1027.0 in Calm     60 % 0.0 in 733.0 W/m2 CLR
13:32 17.7 °F 8.8 °F 1027.0 in Calm     56 % 0.0 in 737.0 W/m2 CLR
13:37 17.8 °F 8.9 °F 1027.0 in Calm     56 % 0.0 in 728.0 W/m2 CLR
13:42 18.0 °F 9.3 °F 1027.0 in NNE 5.6 mph   57 % 0.0 in 726.0 W/m2 CLR
13:47 17.8 °F 9.7 °F 1026.6 in ENE 11.3 mph 11.3 mph 59 % 0.0 in 722.0 W/m2 CLR
13:52 17.9 °F 9.5 °F 1026.6 in NE 7.4 mph 7.4 mph 58 % 0.0 in 714.0 W/m2 CLR
13:57 18.0 °F 9.3 °F 1026.6 in NNE 7.4 mph 7.4 mph 57 % 0.0 in 714.0 W/m2 CLR
14:02 18.0 °F 9.9 °F 1026.3 in NNE 9.3 mph 9.3 mph 59 % 0.0 in 714.0 W/m2 CLR
14:07 17.9 °F 9.1 °F 1026.3 in Calm     56 % 0.0 in 705.0 W/m2 CLR
14:12 18.2 °F 9.8 °F 1026.3 in NE 7.4 mph 7.4 mph 58 % 0.0 in 705.0 W/m2 CLR
14:17 18.3 °F 8.8 °F 1026.3 in Calm     54 % 0.0 in 701.0 W/m2 CLR
14:22 18.6 °F 9.1 °F 1026.0 in Calm     54 % 0.0 in 696.0 W/m2 CLR
14:27 18.9 °F 9.1 °F 1026.0 in NNE 8.0 mph 8.0 mph 53 % 0.0 in 687.0 W/m2 CLR
14:32 18.7 °F 8.9 °F 1026.0 in NE 8.0 mph 8.0 mph 53 % 0.0 in 682.0 W/m2 CLR
14:37 18.7 °F 8.9 °F 1026.0 in ENE 13.0 mph 13.0 mph 53 % 0.0 in 673.0 W/m2 CLR
14:42 18.6 °F 8.6 °F 1025.6 in East 7.4 mph   52 % 0.0 in 668.0 W/m2 CLR
14:47 18.7 °F 8.7 °F 1025.6 in ENE 5.6 mph 5.6 mph 52 % 0.0 in 659.0 W/m2 CLR
14:52 18.9 °F 9.4 °F 1025.6 in Calm     54 % 0.0 in 650.0 W/m2 CLR
14:57 19.0 °F 8.9 °F 1025.6 in NE 14.5 mph 14.5 mph 52 % 0.0 in 642.0 W/m2 CLR
15:02 18.8 °F 8.5 °F 1025.6 in Calm     51 % 0.0 in 638.0 W/m2 CLR
15:07 18.9 °F 8.8 °F 1025.6 in NE 13.0 mph 13.0 mph 52 % 0.0 in 626.0 W/m2 CLR
15:12 19.1 °F 9.6 °F 1025.6 in NNE 7.4 mph 7.4 mph 54 % 0.0 in 613.0 W/m2 CLR
15:17 19.1 °F 9.0 °F 1025.6 in Calm     52 % 0.0 in 596.0 W/m2 CLR
15:22 19.2 °F 8.2 °F 1025.6 in East 14.8 mph 14.8 mph 49 % 0.0 in 589.0 W/m2 CLR
15:27 18.7 °F 7.5 °F 1025.6 in ENE 5.6 mph 5.6 mph 48 % 0.0 in 577.0 W/m2 CLR
15:32 18.8 °F 7.8 °F 1025.6 in Calm     49 % 0.0 in 570.0 W/m2 CLR
15:37 19.1 °F 8.7 °F 1025.6 in ENE 9.3 mph 9.3 mph 51 % 0.0 in 559.0 W/m2 CLR
15:38 19.1 °F 9.0 °F 1025.3 in ESE 6.4 mph 6.4 mph 52 % 0.0 in 559.0 W/m2 CLR
15:48 18.8 °F 7.8 °F 1025.3 in ENE 7.4 mph 7.4 mph 49 % 0.0 in 531.0 W/m2 CLR
15:53 18.8 °F 7.9 °F 1025.3 in ESE 11.1 mph 11.1 mph 49 % 0.0 in 524.0 W/m2 CLR
15:58 18.7 °F 7.5 °F 1025.3 in East 13.0 mph 13.0 mph 48 % 0.0 in 510.0 W/m2 CLR
16:03 18.7 °F 8.1 °F 1025.3 in East 6.4 mph 6.4 mph 50 % 0.0 in 494.0 W/m2 CLR
16:13 18.9 °F 8.2 °F 1025.3 in ENE 5.6 mph   50 % 0.0 in 462.0 W/m2 CLR
16:18 19.1 °F 8.1 °F 1025.3 in East 13.0 mph 13.0 mph 49 % 0.0 in 452.0 W/m2 CLR
16:23 19.1 °F 8.1 °F 1024.9 in East 7.4 mph 7.6 mph 49 % 0.0 in 432.0 W/m2 CLR
16:28 19.0 °F 8.1 °F 1024.9 in East 11.1 mph 11.1 mph 49 % 0.0 in 424.0 W/m2 CLR
16:38 19.0 °F 8.1 °F 1024.9 in East 13.0 mph 13.0 mph 49 % 0.0 in 399.0 W/m2 CLR
16:43 18.9 °F 8.2 °F 1024.9 in NE 5.6 mph 5.6 mph 50 % 0.0 in 385.0 W/m2 CLR
16:48 18.9 °F 7.9 °F 1024.9 in NE 5.6 mph 5.6 mph 49 % 0.0 in 366.0 W/m2 CLR
16:53 19.0 °F 8.3 °F 1024.9 in ENE 7.4 mph 7.4 mph 50 % 0.0 in 357.0 W/m2 CLR
16:58 19.0 °F 8.3 °F 1024.9 in ENE 9.3 mph 9.3 mph 50 % 0.0 in 339.0 W/m2 CLR
17:03 19.0 °F 8.3 °F 1024.9 in Calm     50 % 0.0 in 323.0 W/m2 CLR
17:08 19.1 °F 8.4 °F 1024.9 in NE 11.1 mph 11.1 mph 50 % 0.0 in 306.0 W/m2 CLR
17:13 19.0 °F 8.3 °F 1024.9 in Calm     50 % 0.0 in 290.0 W/m2 CLR
17:18 19.2 °F 8.5 °F 1024.6 in Calm     50 % 0.0 in 274.0 W/m2 CLR
17:23 19.1 °F 8.1 °F 1024.6 in Calm   0.5 mph 49 % 0.0 in 260.0 W/m2 CLR
17:29 19.0 °F 8.3 °F 1024.6 in Calm     50 % 0.0 in 246.0 W/m2 CLR
17:34 19.0 °F 8.3 °F 1024.6 in Calm     50 % 0.0 in 227.0 W/m2 CLR
17:35 19.0 °F 8.3 °F 1024.6 in Calm     50 % 0.0 in 223.0 W/m2 CLR
17:40 18.9 °F 8.8 °F 1024.6 in ENE 7.4 mph   52 % 0.0 in 204.0 W/m2 CLR
17:45 18.9 °F 8.5 °F 1024.6 in ENE 1.9 mph 1.9 mph 51 % 0.0 in 186.0 W/m2 CLR
17:50 18.9 °F 8.2 °F 1024.6 in NE 8.0 mph 8.0 mph 50 % 0.0 in 169.0 W/m2 CLR
17:55 18.8 °F 8.4 °F 1024.6 in Calm     51 % 0.0 in 149.0 W/m2 CLR
18:00 18.7 °F 8.4 °F 1024.6 in NE 5.6 mph   51 % 0.0 in 134.0 W/m2 CLR
18:05 18.7 °F 8.6 °F 1024.6 in NNE 5.6 mph 5.6 mph 52 % 0.0 in 116.0 W/m2 CLR
18:10 18.5 °F 8.4 °F 1024.6 in NE 7.4 mph 7.4 mph 52 % 0.0 in 102.0 W/m2 CLR
18:15 18.4 °F 8.3 °F 1024.6 in Calm     52 % 0.0 in 84.0 W/m2 CLR
18:20 18.2 °F 8.2 °F 1024.6 in NE 6.4 mph 6.4 mph 52 % 0.0 in 63.0 W/m2 SCT
18:25 18.1 °F 8.4 °F 1024.6 in NE 7.4 mph 7.4 mph 53 % 0.0 in 53.0 W/m2 SCT
18:30 18.0 °F 8.3 °F 1024.6 in Calm     53 % 0.0 in 44.0 W/m2 SCT
18:35 17.9 °F 8.5 °F 1024.6 in Calm     54 % 0.0 in 35.0 W/m2 BKN
18:40 17.9 °F 8.4 °F 1024.6 in Calm     54 % 0.0 in 25.0 W/m2 BKN
18:45 17.8 °F 8.6 °F 1024.6 in Calm     55 % 0.0 in 19.0 W/m2 BKN
18:50 17.6 °F 8.9 °F 1024.9 in Calm     57 % 0.0 in 16.0 W/m2 BKN
18:55 17.3 °F 8.9 °F 1024.6 in Calm     58 % 0.0 in 12.0 W/m2 BKN
19:00 16.8 °F 8.8 °F 1024.6 in Calm     59 % 0.0 in 7.0 W/m2 BKN
19:05 16.3 °F 8.7 °F 1024.9 in Calm     61 % 0.0 in 5.0 W/m2 OVC
19:10 15.9 °F 8.7 °F 1024.9 in Calm     62 % 0.0 in 0.0 W/m2 OVC
19:15 15.7 °F 8.7 °F 1024.9 in Calm     63 % 0.0 in 0.0 W/m2 OVC
19:20 15.5 °F 8.5 °F 1024.9 in Calm     63 % 0.0 in 0.0 W/m2 CLR
19:25 15.3 °F 8.6 °F 1024.9 in Calm     64 % 0.0 in 0.0 W/m2 CLR
19:30 15.2 °F 8.4 °F 1024.9 in Calm     64 % 0.0 in 0.0 W/m2 CLR
19:35 15.0 °F 8.2 °F 1024.9 in Calm     64 % 0.0 in 0.0 W/m2 CLR
19:40 14.9 °F 8.4 °F 1024.9 in Calm     65 % 0.0 in 0.0 W/m2 CLR
19:45 14.8 °F 8.7 °F 1025.3 in Calm     67 % 0.0 in 0.0 W/m2 CLR
19:50 14.6 °F 8.8 °F 1025.3 in Calm     68 % 0.0 in 0.0 W/m2 CLR
19:55 14.4 °F 8.8 °F 1025.3 in Calm     69 % 0.0 in 0.0 W/m2 CLR
19:57 14.3 °F 8.7 °F 1025.3 in Calm     69 % 0.0 in 0.0 W/m2 CLR
20:02 13.9 °F 8.9 °F 1025.3 in Calm     72 % 0.0 in 0.0 W/m2 CLR
20:07 13.6 °F 8.8 °F 1025.3 in Calm     73 % 0.0 in 0.0 W/m2 CLR
20:12 13.1 °F 8.8 °F 1025.6 in Calm     75 % 0.0 in 0.0 W/m2 CLR
20:17 12.8 °F 8.4 °F 1025.6 in Calm     75 % 0.0 in 0.0 W/m2 CLR
20:22 12.6 °F 8.5 °F 1025.6 in Calm     76 % 0.0 in 0.0 W/m2 CLR
20:27 12.4 °F 8.5 °F 1025.6 in Calm     77 % 0.0 in 0.0 W/m2 CLR
20:32 12.3 °F 8.4 °F 1025.6 in Calm     77 % 0.0 in 0.0 W/m2 CLR
20:37 12.2 °F 8.4 °F 1025.6 in Calm     78 % 0.0 in 0.0 W/m2 CLR
20:42 12.0 °F 8.4 °F 1025.6 in Calm     79 % 0.0 in 0.0 W/m2 CLR
20:47 11.8 °F 8.4 °F 1026.0 in Calm     80 % 0.0 in 0.0 W/m2 CLR
20:52 11.6 °F 8.2 °F 1026.0 in Calm     80 % 0.0 in 0.0 W/m2 CLR
20:57 11.3 °F 8.2 °F 1026.0 in Calm     81 % 0.0 in 0.0 W/m2 CLR
21:02 11.1 °F 7.9 °F 1026.0 in Calm     81 % 0.0 in 0.0 W/m2 CLR
21:07 10.9 °F 8.0 °F 1026.0 in Calm     82 % 0.0 in 0.0 W/m2 CLR
21:12 10.7 °F 7.8 °F 1026.0 in Calm     82 % 0.0 in 0.0 W/m2 CLR
21:17 10.6 °F 7.8 °F 1026.0 in Calm     83 % 0.0 in 0.0 W/m2 CLR
21:22 10.4 °F 7.8 °F 1026.0 in Calm     84 % 0.0 in 0.0 W/m2 CLR
21:27 10.2 °F 7.6 °F 1026.3 in Calm     84 % 0.0 in 0.0 W/m2 CLR
21:32 10.1 °F 7.7 °F 1026.3 in Calm     85 % 0.0 in 0.0 W/m2 CLR
21:37 10.0 °F 7.6 °F 1026.3 in Calm     85 % 0.0 in 0.0 W/m2 CLR
21:42 9.9 °F 7.5 °F 1026.3 in Calm     85 % 0.0 in 0.0 W/m2 CLR
21:47 9.8 °F 7.4 °F 1026.3 in Calm     85 % 0.0 in 0.0 W/m2 CLR
21:52 9.7 °F 7.3 °F 1026.3 in Calm     85 % 0.0 in 0.0 W/m2 CLR
21:57 9.6 °F 7.3 °F 1026.3 in Calm     86 % 0.0 in 0.0 W/m2 CLR
22:02 9.4 °F 7.2 °F 1026.3 in Calm     86 % 0.0 in 0.0 W/m2 CLR
22:07 9.3 °F 7.3 °F 1026.3 in Calm     87 % 0.0 in 0.0 W/m2 CLR
22:12 9.2 °F 7.2 °F 1026.3 in Calm     87 % 0.0 in 0.0 W/m2 CLR
22:17 9.1 °F 7.0 °F 1026.3 in Calm     87 % 0.0 in 0.0 W/m2 CLR
22:22 9.0 °F 6.9 °F 1026.3 in Calm     87 % 0.0 in 0.0 W/m2 CLR
22:27 8.8 °F 6.8 °F 1026.6 in Calm     87 % 0.0 in 0.0 W/m2 CLR
22:32 8.7 °F 6.8 °F 1026.6 in Calm     88 % 0.0 in 0.0 W/m2 CLR
22:37 8.6 °F 6.7 °F 1026.6 in Calm     88 % 0.0 in 0.0 W/m2 CLR
22:42 8.6 °F 6.7 °F 1026.6 in Calm     88 % 0.0 in 0.0 W/m2 CLR
22:47 8.4 °F 6.6 °F 1026.6 in Calm     88 % 0.0 in 0.0 W/m2 CLR
22:53 8.3 °F 6.4 °F 1026.6 in Calm     88 % 0.0 in 0.0 W/m2 CLR
22:58 8.2 °F 6.5 °F 1026.6 in Calm     89 % 0.0 in 0.0 W/m2 CLR
23:03 8.1 °F 6.4 °F 1026.6 in Calm     89 % 0.0 in 0.0 W/m2 CLR
23:08 8.1 °F 6.3 °F 1026.6 in Calm     89 % 0.0 in 0.0 W/m2 CLR
23:13 8.0 °F 6.3 °F 1026.6 in Calm     89 % 0.0 in 0.0 W/m2 CLR
23:18 7.9 °F 6.2 °F 1026.6 in Calm     89 % 0.0 in 0.0 W/m2 CLR
23:23 7.8 °F 6.1 °F 1026.6 in Calm     89 % 0.0 in 0.0 W/m2 CLR
23:28 7.7 °F 6.2 °F 1026.6 in Calm     90 % 0.0 in 0.0 W/m2 CLR
23:33 7.7 °F 6.1 °F 1026.6 in Calm     90 % 0.0 in 0.0 W/m2 CLR
23:38 7.6 °F 6.1 °F 1026.6 in Calm     90 % 0.0 in 0.0 W/m2 CLR
23:43 7.6 °F 6.0 °F 1026.6 in Calm     90 % 0.0 in 0.0 W/m2 CLR
23:48 7.4 °F 5.9 °F 1026.6 in Calm     90 % 0.0 in 0.0 W/m2 CLR
23:53 7.4 °F 5.8 °F 1026.6 in Calm     90 % 0.0 in 0.0 W/m2 CLR
23:58 7.3 °F 5.7 °F 1026.6 in Calm     90 % 0.0 in 0.0 W/m2 CLR
Lo Temps de Massalio
Compliments of Weather Underground - 1.25 mb